sensor_id;sensor_type;location;lat;lon;timestamp;pressure;altitude;pressure_sealevel;temperature;humidity
48027;BME280;50714;49.208;5.364;2023-06-19T00:09:32;98970.19;;;20.79;71.34
48027;BME280;50714;49.208;5.364;2023-06-19T00:19:33;98956.25;;;20.70;73.05
48027;BME280;50714;49.208;5.364;2023-06-19T00:29:36;98985.59;;;20.69;73.62
48027;BME280;50714;49.208;5.364;2023-06-19T00:39:37;98986.13;;;20.71;73.91
48027;BME280;50714;49.208;5.364;2023-06-19T00:49:37;99005.59;;;20.70;73.45
48027;BME280;50714;49.208;5.364;2023-06-19T00:59:38;99017.66;;;20.69;73.71
48027;BME280;50714;49.208;5.364;2023-06-19T01:09:46;99030.28;;;20.65;75.30
48027;BME280;50714;49.208;5.364;2023-06-19T01:19:47;99028.38;;;20.60;73.97
48027;BME280;50714;49.208;5.364;2023-06-19T01:29:48;99050.91;;;20.52;74.21
48027;BME280;50714;49.208;5.364;2023-06-19T01:39:48;99070.66;;;20.49;74.10
48027;BME280;50714;49.208;5.364;2023-06-19T01:49:49;99072.56;;;20.33;74.87
48027;BME280;50714;49.208;5.364;2023-06-19T01:59:49;99083.28;;;20.30;76.20
48027;BME280;50714;49.208;5.364;2023-06-19T02:09:50;99101.38;;;20.31;75.82
48027;BME280;50714;49.208;5.364;2023-06-19T02:19:50;99092.28;;;20.35;76.25
48027;BME280;50714;49.208;5.364;2023-06-19T02:29:50;99101.38;;;20.41;76.48
48027;BME280;50714;49.208;5.364;2023-06-19T02:39:51;99119.47;;;20.42;77.71
48027;BME280;50714;49.208;5.364;2023-06-19T02:49:51;99129.88;;;20.45;78.06
48027;BME280;50714;49.208;5.364;2023-06-19T02:59:51;99136.19;;;20.46;78.52
48027;BME280;50714;49.208;5.364;2023-06-19T03:09:52;99140.28;;;20.43;79.17
48027;BME280;50714;49.208;5.364;2023-06-19T03:19:53;99124.13;;;20.47;78.51
48027;BME280;50714;49.208;5.364;2023-06-19T03:29:53;99152.91;;;20.44;79.18
48027;BME280;50714;49.208;5.364;2023-06-19T03:39:53;99147.41;;;20.44;78.59
48027;BME280;50714;49.208;5.364;2023-06-19T03:49:54;99154.81;;;20.43;78.74
48027;BME280;50714;49.208;5.364;2023-06-19T03:59:54;99167.97;;;20.41;78.92
48027;BME280;50714;49.208;5.364;2023-06-19T04:09:55;99171.00;;;20.40;79.08
48027;BME280;50714;49.208;5.364;2023-06-19T04:19:55;99165.78;;;20.43;78.78
48027;BME280;50714;49.208;5.364;2023-06-19T04:29:55;99152.91;;;20.49;77.86
48027;BME280;50714;49.208;5.364;2023-06-19T04:39:55;99171.00;;;20.45;79.03
48027;BME280;50714;49.208;5.364;2023-06-19T04:49:56;99177.03;;;20.47;79.18
48027;BME280;50714;49.208;5.364;2023-06-19T04:59:56;99167.16;;;20.51;79.25
48027;BME280;50714;49.208;5.364;2023-06-19T05:09:57;99183.06;;;20.49;79.95
48027;BME280;50714;49.208;5.364;2023-06-19T05:19:58;99177.53;;;20.59;79.93
48027;BME280;50714;49.208;5.364;2023-06-19T05:29:58;99193.94;;;20.80;79.93
48027;BME280;50714;49.208;5.364;2023-06-19T05:39:59;99194.72;;;21.05;79.82
48027;BME280;50714;49.208;5.364;2023-06-19T05:49:59;99199.38;;;21.20;78.97
48027;BME280;50714;49.208;5.364;2023-06-19T06:00:00;99209.25;;;21.21;77.57
48027;BME280;50714;49.208;5.364;2023-06-19T06:10:00;99211.19;;;21.21;76.90
48027;BME280;50714;49.208;5.364;2023-06-19T06:20:01;99236.69;;;21.21;77.33
48027;BME280;50714;49.208;5.364;2023-06-19T06:30:01;99245.75;;;21.22;77.22
48027;BME280;50714;49.208;5.364;2023-06-19T06:40:02;99246.00;;;21.30;77.18
48027;BME280;50714;49.208;5.364;2023-06-19T06:50:06;99256.38;;;21.43;76.55
48027;BME280;50714;49.208;5.364;2023-06-19T07:00:07;99261.59;;;21.45;76.21
48027;BME280;50714;49.208;5.364;2023-06-19T07:10:11;99260.44;;;21.56;75.64
48027;BME280;50714;49.208;5.364;2023-06-19T07:20:11;99271.97;;;21.63;74.67
48027;BME280;50714;49.208;5.364;2023-06-19T07:30:12;99270.78;;;21.74;74.23
48027;BME280;50714;49.208;5.364;2023-06-19T07:40:13;99282.56;;;21.85;74.13
48027;BME280;50714;49.208;5.364;2023-06-19T07:50:13;99291.28;;;21.97;74.05
48027;BME280;50714;49.208;5.364;2023-06-19T08:00:14;99295.09;;;22.17;73.16
48027;BME280;50714;49.208;5.364;2023-06-19T08:10:14;99297.75;;;22.27;71.92
48027;BME280;50714;49.208;5.364;2023-06-19T08:20:15;99302.38;;;22.36;72.67
48027;BME280;50714;49.208;5.364;2023-06-19T08:30:16;99307.50;;;22.48;70.55
48027;BME280;50714;49.208;5.364;2023-06-19T08:40:19;99290.66;;;22.94;70.34
48027;BME280;50714;49.208;5.364;2023-06-19T08:50:19;99296.97;;;23.52;70.07
48027;BME280;50714;49.208;5.364;2023-06-19T09:00:24;99301.75;;;24.51;66.86
48027;BME280;50714;49.208;5.364;2023-06-19T09:10:25;99271.44;;;26.34;65.65
48027;BME280;50714;49.208;5.364;2023-06-19T09:20:26;99268.53;;;27.76;59.63
48027;BME280;50714;49.208;5.364;2023-06-19T09:30:28;99260.00;;;29.45;57.03
48027;BME280;50714;49.208;5.364;2023-06-19T09:40:28;99254.66;;;30.20;53.64
48027;BME280;50714;49.208;5.364;2023-06-19T09:50:28;99254.03;;;32.32;47.13
48027;BME280;50714;49.208;5.364;2023-06-19T10:00:29;99239.72;;;29.45;49.62
48027;BME280;50714;49.208;5.364;2023-06-19T10:10:32;99242.13;;;27.79;51.57
48027;BME280;50714;49.208;5.364;2023-06-19T10:20:36;99239.97;;;27.59;51.25
48027;BME280;50714;49.208;5.364;2023-06-19T10:30:40;99236.94;;;28.72;52.01
48027;BME280;50714;49.208;5.364;2023-06-19T10:40:40;99231.09;;;28.22;50.68
48027;BME280;50714;49.208;5.364;2023-06-19T10:50:42;99219.63;;;27.32;50.43
48027;BME280;50714;49.208;5.364;2023-06-19T11:00:42;99217.34;;;26.50;51.86
48027;BME280;50714;49.208;5.364;2023-06-19T11:10:42;99222.91;;;26.14;51.50
48027;BME280;50714;49.208;5.364;2023-06-19T11:20:52;99225.53;;;25.97;52.18
48027;BME280;50714;49.208;5.364;2023-06-19T11:31:00;99211.97;;;25.73;52.62
48027;BME280;50714;49.208;5.364;2023-06-19T11:41:04;99204.97;;;25.75;52.70
48027;BME280;50714;49.208;5.364;2023-06-19T11:51:04;99209.06;;;25.92;52.87
48027;BME280;50714;49.208;5.364;2023-06-19T12:01:05;99198.50;;;26.83;52.38
48027;BME280;50714;49.208;5.364;2023-06-19T12:11:06;99193.03;;;27.88;50.29
48027;BME280;50714;49.208;5.364;2023-06-19T12:21:08;99189.94;;;28.15;49.67
48027;BME280;50714;49.208;5.364;2023-06-19T12:31:09;99194.34;;;28.16;49.31
48027;BME280;50714;49.208;5.364;2023-06-19T12:41:09;99188.66;;;28.04;49.09
48027;BME280;50714;49.208;5.364;2023-06-19T12:51:10;99182.25;;;27.69;49.03
48027;BME280;50714;49.208;5.364;2023-06-19T13:01:10;99175.88;;;27.60;48.76
48027;BME280;50714;49.208;5.364;2023-06-19T13:11:10;99165.22;;;27.54;49.31
48027;BME280;50714;49.208;5.364;2023-06-19T13:21:11;99147.50;;;27.63;49.52
48027;BME280;50714;49.208;5.364;2023-06-19T13:31:11;99141.41;;;27.52;49.65
48027;BME280;50714;49.208;5.364;2023-06-19T13:41:12;99123.31;;;27.55;50.16
48027;BME280;50714;49.208;5.364;2023-06-19T13:51:12;99119.56;;;27.51;49.99
48027;BME280;50714;49.208;5.364;2023-06-19T14:01:13;99108.63;;;27.46;50.46
48027;BME280;50714;49.208;5.364;2023-06-19T14:11:13;99081.09;;;27.49;49.89
48027;BME280;50714;49.208;5.364;2023-06-19T14:21:13;99081.56;;;27.43;49.16
48027;BME280;50714;49.208;5.364;2023-06-19T14:31:14;99059.06;;;27.36;49.36
48027;BME280;50714;49.208;5.364;2023-06-19T14:41:15;99055.66;;;27.39;49.96
48027;BME280;50714;49.208;5.364;2023-06-19T14:51:15;99060.69;;;27.45;50.03
48027;BME280;50714;49.208;5.364;2023-06-19T15:01:16;99048.31;;;27.43;49.63
48027;BME280;50714;49.208;5.364;2023-06-19T15:11:16;99045.50;;;27.17;49.13
48027;BME280;50714;49.208;5.364;2023-06-19T15:21:17;99052.59;;;26.83;49.67
48027;BME280;50714;49.208;5.364;2023-06-19T15:31:17;99036.09;;;26.78;50.51
48027;BME280;50714;49.208;5.364;2023-06-19T15:41:18;99024.03;;;26.74;50.82
48027;BME280;50714;49.208;5.364;2023-06-19T15:51:18;99007.13;;;26.84;50.92
48027;BME280;50714;49.208;5.364;2023-06-19T16:01:18;99000.75;;;26.75;50.16
48027;BME280;50714;49.208;5.364;2023-06-19T16:11:19;98977.75;;;26.58;51.23
48027;BME280;50714;49.208;5.364;2023-06-19T16:21:19;98960.97;;;26.45;50.83
48027;BME280;50714;49.208;5.364;2023-06-19T16:31:20;98969.09;;;26.42;51.22
48027;BME280;50714;49.208;5.364;2023-06-19T16:41:21;98978.53;;;26.41;51.86
48027;BME280;50714;49.208;5.364;2023-06-19T16:51:21;98973.28;;;26.31;51.56
48027;BME280;50714;49.208;5.364;2023-06-19T17:01:22;98960.66;;;26.25;51.72
48027;BME280;50714;49.208;5.364;2023-06-19T17:11:22;98970.91;;;26.15;52.19
48027;BME280;50714;49.208;5.364;2023-06-19T17:21:26;98951.94;;;26.00;52.52
48027;BME280;50714;49.208;5.364;2023-06-19T17:31:26;98973.53;;;25.90;53.33
48027;BME280;50714;49.208;5.364;2023-06-19T17:41:27;98967.44;;;25.79;54.11
48027;BME280;50714;49.208;5.364;2023-06-19T17:51:27;98983.28;;;25.65;54.70
48027;BME280;50714;49.208;5.364;2023-06-19T18:01:27;98975.38;;;25.49;55.71
48027;BME280;50714;49.208;5.364;2023-06-19T18:11:28;98968.00;;;25.23;57.06
48027;BME280;50714;49.208;5.364;2023-06-19T18:21:28;98990.63;;;25.11;58.12
48027;BME280;50714;49.208;5.364;2023-06-19T18:31:28;99002.03;;;24.96;59.35
48027;BME280;50714;49.208;5.364;2023-06-19T18:41:29;98992.81;;;24.87;61.78
48027;BME280;50714;49.208;5.364;2023-06-19T18:51:29;98995.06;;;24.57;64.23
48027;BME280;50714;49.208;5.364;2023-06-19T19:01:30;98987.44;;;24.27;65.99
48027;BME280;50714;49.208;5.364;2023-06-19T19:11:31;98990.84;;;24.05;67.67
48027;BME280;50714;49.208;5.364;2023-06-19T19:21:31;99008.06;;;23.83;69.78
48027;BME280;50714;49.208;5.364;2023-06-19T19:31:31;99060.13;;;23.66;71.88
48027;BME280;50714;49.208;5.364;2023-06-19T20:01:17;99145.19;;;20.71;92.67
48027;BME280;50714;49.208;5.364;2023-06-19T20:11:17;99140.28;;;20.07;98.92
48027;BME280;50714;49.208;5.364;2023-06-19T20:21:18;99098.34;;;19.87;100.00
48027;BME280;50714;49.208;5.364;2023-06-19T20:31:18;99106.94;;;18.55;100.00
48027;BME280;50714;49.208;5.364;2023-06-19T20:41:18;99129.13;;;18.22;100.00
48027;BME280;50714;49.208;5.364;2023-06-19T20:51:19;99122.72;;;18.43;100.00
48027;BME280;50714;49.208;5.364;2023-06-19T21:16:43;99113.88;;;19.30;100.00
48027;BME280;50714;49.208;5.364;2023-06-19T21:26:43;99109.94;;;19.01;100.00
48027;BME280;50714;49.208;5.364;2023-06-19T21:36:43;99112.09;;;18.94;100.00
48027;BME280;50714;49.208;5.364;2023-06-19T21:46:44;99132.25;;;18.78;100.00
48027;BME280;50714;49.208;5.364;2023-06-19T21:56:44;99138.19;;;18.64;100.00
48027;BME280;50714;49.208;5.364;2023-06-19T22:06:44;99149.97;;;18.70;100.00
48027;BME280;50714;49.208;5.364;2023-06-19T22:16:45;99140.41;;;18.72;100.00
48027;BME280;50714;49.208;5.364;2023-06-19T22:26:45;99127.94;;;18.92;100.00
48027;BME280;50714;49.208;5.364;2023-06-19T22:36:45;99135.59;;;18.95;100.00
48027;BME280;50714;49.208;5.364;2023-06-19T22:46:45;99115.09;;;18.87;100.00
48027;BME280;50714;49.208;5.364;2023-06-19T22:56:46;99114.31;;;19.02;100.00
48027;BME280;50714;49.208;5.364;2023-06-19T23:06:47;99100.41;;;19.08;100.00
48027;BME280;50714;49.208;5.364;2023-06-19T23:16:48;99088.34;;;19.15;100.00
48027;BME280;50714;49.208;5.364;2023-06-19T23:26:49;99065.63;;;19.04;100.00
48027;BME280;50714;49.208;5.364;2023-06-19T23:36:49;99041.59;;;19.16;100.00
48027;BME280;50714;49.208;5.364;2023-06-19T23:46:49;99030.97;;;19.35;100.00
48027;BME280;50714;49.208;5.364;2023-06-19T23:56:50;99026.56;;;19.39;100.00
